EZY39WY EGKK-LEVC
Flight info
| Callsign | EZY39WY |
|---|---|
| Flight time | N/A |
| Altitude | 33000 |
| Route | SFD Y47 BENBO UY47 DRAKE L151 SITET UN859 SOPIL DCT BALAN DCT LMG DCT PIMQO DCT AGN DCT ANETO DCT POSSY DCT ROCME DCT SEROX DCT CASPE DCT MLA DCT CRETA DCT RIMES DCT SAURA |
| Aircraft | A320/M-SDE2E3FGHIJ1RWXYZ/LB1 |
Departure
| Time | N/A |
|---|---|
| Airport | London Gatwick Airport (EGKK) |
Arrival
| Time | 2026-05-04 17:04 |
|---|---|
| Airport | Valencia Airport (LEVC) |
| Time | Latitude | Longitude | Altitude | Speed | Heading |
|---|---|---|---|---|---|
| 2026-05-04 16:52 | 39.90743 | -0.32251 | 15320 ft | 292 kts | 200° |
| 2026-05-04 16:52 | 39.88808 | -0.32945 | 14942 ft | 292 kts | 200° |
| 2026-05-04 16:53 | 39.84872 | -0.34362 | 14193 ft | 295 kts | 199° |
| 2026-05-04 16:53 | 39.79290 | -0.37345 | 12934 ft | 287 kts | 231° |
| 2026-05-04 16:54 | 39.78322 | -0.39576 | 12480 ft | 285 kts | 254° |
| 2026-05-04 16:55 | 39.78453 | -0.49734 | 10975 ft | 279 kts | 266° |
| 2026-05-04 16:55 | 39.78067 | -0.54724 | 10191 ft | 276 kts | 260° |
| 2026-05-04 16:56 | 39.77201 | -0.59524 | 9661 ft | 264 kts | 253° |
| 2026-05-04 16:56 | 39.75215 | -0.65955 | 8218 ft | 250 kts | 245° |
| 2026-05-04 16:57 | 39.74385 | -0.67944 | 7825 ft | 251 kts | 242° |
| 2026-05-04 16:57 | 39.72442 | -0.71738 | 7003 ft | 253 kts | 235° |
| 2026-05-04 16:58 | 39.68901 | -0.76837 | 5859 ft | 250 kts | 225° |
| 2026-05-04 16:58 | 39.67492 | -0.78053 | 5796 ft | 241 kts | 203° |
| 2026-05-04 16:59 | 39.64258 | -0.78119 | 5642 ft | 234 kts | 177° |
| 2026-05-04 17:00 | 39.59282 | -0.72725 | 4496 ft | 248 kts | 128° |
| 2026-05-04 17:00 | 39.56220 | -0.67337 | 3395 ft | 241 kts | 121° |
| 2026-05-04 17:01 | 39.54751 | -0.63578 | 2713 ft | 226 kts | 117° |
| 2026-05-04 17:01 | 39.53431 | -0.60052 | 2080 ft | 210 kts | 117° |
| 2026-05-04 17:02 | 39.52217 | -0.56825 | 1518 ft | 190 kts | 117° |
| 2026-05-04 17:02 | 39.51156 | -0.54012 | 1020 ft | 162 kts | 117° |
| 2026-05-04 17:03 | 39.50673 | -0.52740 | 801 ft | 153 kts | 116° |
| 2026-05-04 17:03 | 39.50222 | -0.51542 | 574 ft | 144 kts | 114° |
| 2026-05-04 17:03 | 39.49367 | -0.49300 | 224 ft | 128 kts | 116° |
| 2026-05-04 17:04 | 39.48864 | -0.47985 | 209 ft | 44 kts | 116° |
| 2026-05-04 17:04 | 39.48647 | -0.47362 | 191 ft | 27 kts | 89° |
| 2026-05-04 17:05 | 39.48795 | -0.47191 | 193 ft | 8 kts | 341° |
| 2026-05-04 17:05 | 39.48893 | -0.47245 | 200 ft | 10 kts | 336° |
| 2026-05-04 17:06 | 39.48972 | -0.47245 | 201 ft | 6 kts | 24° |
| 2026-05-04 17:06 | 39.48980 | -0.47240 | 199 ft | 0 kts | 24° |
| 2026-05-04 17:07 | 39.48997 | -0.47231 | 181 ft | 3 kts | 24° |
| 2026-05-04 17:07 | 39.49003 | -0.47227 | 201 ft | 0 kts | 24° |